Terminal Aerodrome Forecast
Issued by NWS

Current Version | Previous Version | Text Only | Print | Product List | Glossary Off
Versions: 1 2 3 4 5 6 7 8 9 10 11 12 13 14 15

968
FTUS41 KILN 081730
TAFLCK
TAF
KLCK 081730Z 0818/0918 23007KT P6SM SCT030 BKN250
     FM090000 VRB03KT P6SM SCT070 BKN200
     FM091500 23011KT P6SM VCSH SCT025 OVC050=

USA.gov is the U.S. government's official web portal to all federal, state and local government web resources and services.